Ruropolis, Brazil
Current Conditions -  °F | °C
As of 5:00 PM on Thursday 29 Jan 2015 (Local Time) from SBIH Reporting Station
Few Clouds Few Clouds  
Wind Chill: 93°   Ceiling: Unl
Heat Index: 105°   Visibility: 6mi
Dew Point: 75°   Wind: 3mph
Humidity: 56%   Direction: 70°ENE
Pressure: 29.71"   Gusts: NA
Location:  4.1°S, 54.91°W
Report Text: SBIH 292000Z 07003KT 9999 FEW023 FEW024TCU 34/24 Q1006
Loading
Personal Weather Stations






























Interactive Weather Map New forecast layout! Learn more

10-Day Weather Forecast

Advertisements
Track Severe Weather on mobile